Time;durP1;ratioP1;P1;durP2;ratioP2;P2;SDS_P1;SDS_P2;PMS_P1;PMS_P2;Temp;Humidity;BMP_temperature;BMP_pressure;BME280_temperature;BME280_humidity;BME280_pressure;Samples;Min_cycle;Max_cycle;Signal;HPM_P1;HPM_P2
2022/09/18 00:01:16;;;;;;;;;;;;;;;;;;5074395;28;19924;-80
2022/09/18 00:03:41;;;;;;;;;;;;;;;;;;5073819;28;20306;-81
2022/09/18 00:06:08;;;;;;;;;;;;;;;;;;5072763;28;19917;-81
2022/09/18 00:08:33;;;;;;;;;;;;;;;;;;5073818;28;19921;-81
2022/09/18 00:10:58;;;;;;;;;;;;;;;;;;5073839;28;20253;-82
2022/09/18 00:13:24;;;;;;;;;;;;;;;;;;5072491;28;19998;-81
2022/09/18 00:15:53;;;;;;;;;;;;;;;;;;5073842;28;19916;-81
2022/09/18 00:18:18;;;;;;;;;;;;;;;;;;5073859;28;19916;-81
2022/09/18 00:20:43;;;;;;;;;;;;;;;;;;5073658;28;20398;-81
2022/09/18 00:23:09;;;;;;;;;;;;;;;;;;5073010;28;19916;-80
2022/09/18 00:25:34;;;;;;;;;;;;;;;;;;5092909;28;19959;-80
2022/09/18 00:27:59;;;;;;;;;;;;;;;;;;5075975;28;19971;-80
2022/09/18 00:30:25;;;;;;;;;;;;;;;;;;5077210;28;19916;-81
2022/09/18 00:32:50;;;;;;;;;;;;;;;;;;5077205;28;19967;-81
2022/09/18 00:35:16;;;;;;;;;;;;;;;;;;5077081;28;19932;-81
2022/09/18 00:37:41;;;;;;;;;;;;;;;;;;5075547;28;19916;-80
2022/09/18 00:40:07;;;;;;;;;;;;;;;;;;5075814;28;19916;-80
2022/09/18 00:42:32;;;;;;;;;;;;;;;;;;5077387;28;20342;-80
2022/09/18 00:44:58;;;;;;;;;;;;;;;;;;5076945;28;19938;-80
2022/09/18 00:47:31;;;;;;;;;;;;;;;;;;5076802;28;19916;-80
2022/09/18 00:49:59;;;;;;;;;;;;;;;;;;5075726;28;20018;-81
2022/09/18 00:52:26;;;;;;;;;;;;;;;;;;5076437;28;19952;-81
2022/09/18 00:54:53;;;;;;;;;;;;;;;;;;5075460;28;19916;-80
2022/09/18 00:57:21;;;;;;;;;;;;;;;;;;5077275;28;19967;-81
2022/09/18 00:59:49;;;;;;;;;;;;;;;;;;5075423;28;20026;-81
2022/09/18 01:02:15;;;;;;;;;;;;;;;;;;5075342;28;19920;-81
2022/09/18 01:04:41;;;;;;;;;;;;;;;;;;5076490;28;19947;-82
2022/09/18 01:07:06;;;;;;;;;;;;;;;;;;5076162;28;19916;-81
2022/09/18 01:09:34;;;;;;;;;;;;;;;;;;5076572;28;20003;-81
2022/09/18 01:12:04;;;;;;;;;;;;;;;;;;5076295;28;19917;-81
2022/09/18 01:14:40;;;;;;;;;;;;;;;;;;5076211;28;19966;-81
2022/09/18 01:17:08;;;;;;;;;;;;;;;;;;5074932;28;19970;-81
2022/09/18 01:19:52;;;;;;;;;;;;;;;;;;5076152;28;19917;-80
2022/09/18 01:22:36;;;;;;;;;;;;;;;;;;5075862;28;19923;-80
2022/09/18 01:25:01;;;;;;;;;;;;;;;;;;5075889;28;19963;-80
2022/09/18 01:27:46;;;;;;;;;;;;;;;;;;5075878;28;19948;-80
2022/09/18 01:30:11;;;;;;;;;;;;;;;;;;5091719;28;20223;-80
2022/09/18 01:32:36;;;;;;;;;;;;;;;;;;5074975;28;19923;-80
2022/09/18 01:35:09;;;;;;;;;;;;;;;;;;5075540;28;20539;-80
2022/09/18 01:37:37;;;;;;;;;;;;;;;;;;5074242;28;20429;-80
2022/09/18 01:40:16;;;;;;;;;;;;;;;;;;5074944;28;19959;-81
2022/09/18 01:42:45;;;;;;;;;;;;;;;;;;5074358;28;20003;-80
2022/09/18 01:45:11;;;;;;;;;;;;;;;;;;5074384;28;19917;-80
2022/09/18 01:48:05;;;;;;;;;;;;;;;;;;5074324;28;19921;-81
2022/09/18 01:50:33;;;;;;;;;;;;;;;;;;5066101;28;19916;-81
2022/09/18 01:53:02;;;;;;;;;;;;;;;;;;5057465;28;19916;-81
2022/09/18 01:55:33;;;;;;;;;;;;;;;;;;5073826;28;20024;-81
2022/09/18 01:58:08;;;;;;;;;;;;;;;;;;5076395;28;19923;-82
2022/09/18 02:00:34;;;;;;;;;;;;;;;;;;5075866;28;20270;-82
2022/09/18 02:03:08;;;;;;;;;;;;;;;;;;5075440;28;20114;-80
2022/09/18 02:05:38;;;;;;;;;;;;;;;;;;5074134;28;20258;-82
2022/09/18 02:08:08;;;;;;;;;;;;;;;;;;5074741;28;19976;-83
2022/09/18 02:10:36;;;;;;;;;;;;;;;;;;5074129;28;20006;-81
2022/09/18 02:13:02;;;;;;;;;;;;;;;;;;5074194;28;19920;-80
2022/09/18 02:15:27;;;;;;;;;;;;;;;;;;5073909;28;19946;-81
2022/09/18 02:17:57;;;;;;;;;;;;;;;;;;5074961;28;19918;-81
2022/09/18 02:20:27;;;;;;;;;;;;;;;;;;5074888;28;19923;-79
2022/09/18 02:22:53;;;;;;;;;;;;;;;;;;5074831;28;19917;-81
2022/09/18 02:25:23;;;;;;;;;;;;;;;;;;5074968;28;19924;-80
2022/09/18 02:27:48;;;;;;;;;;;;;;;;;;5073493;28;19916;-81
2022/09/18 02:30:14;;;;;;;;;;;;;;;;;;5073878;28;19998;-82
2022/09/18 02:32:39;;;;;;;;;;;;;;;;;;5074948;28;19916;-82
2022/09/18 02:35:05;;;;;;;;;;;;;;;;;;5090252;28;20245;-81
2022/09/18 02:37:49;;;;;;;;;;;;;;;;;;5075180;28;19920;-82
2022/09/18 02:40:30;;;;;;;;;;;;;;;;;;5090484;28;20315;-81
2022/09/18 02:43:02;;;;;;;;;;;;;;;;;;5073273;28;19916;-82
2022/09/18 02:45:30;;;;;;;;;;;;;;;;;;5073455;28;19995;-82
2022/09/18 02:48:15;;;;;;;;;;;;;;;;;;5055882;28;19947;-82
2022/09/18 02:50:59;;;;;;;;;;;;;;;;;;5073838;28;19918;-81
2022/09/18 02:53:35;;;;;;;;;;;;;;;;;;5074727;28;19952;-81
2022/09/18 02:56:22;;;;;;;;;;;;;;;;;;5073637;28;19933;-81
2022/09/18 02:58:55;;;;;;;;;;;;;;;;;;5073450;28;19916;-80
2022/09/18 03:01:20;;;;;;;;;;;;;;;;;;5073484;28;19916;-82
2022/09/18 03:03:46;;;;;;;;;;;;;;;;;;5056822;28;19923;-81
2022/09/18 03:06:11;;;;;;;;;;;;;;;;;;5074504;28;20288;-81
2022/09/18 03:08:37;;;;;;;;;;;;;;;;;;5075054;28;19923;-80
2022/09/18 03:11:02;;;;;;;;;;;;;;;;;;5075099;28;19917;-81
2022/09/18 03:13:30;;;;;;;;;;;;;;;;;;5073312;28;19921;-83
2022/09/18 03:15:55;;;;;;;;;;;;;;;;;;5077026;28;19951;-80
2022/09/18 03:18:21;;;;;;;;;;;;;;;;;;5076821;28;19916;-80
2022/09/18 03:20:46;;;;;;;;;;;;;;;;;;5077530;28;19916;-80
2022/09/18 03:23:11;;;;;;;;;;;;;;;;;;5076377;28;20014;-82
2022/09/18 03:25:37;;;;;;;;;;;;;;;;;;5080997;28;19939;-80
2022/09/18 03:28:02;;;;;;;;;;;;;;;;;;5096869;28;19966;-82
2022/09/18 03:30:28;;;;;;;;;;;;;;;;;;5096033;28;19972;-82
2022/09/18 03:32:53;;;;;;;;;;;;;;;;;;5096236;28;19921;-82
2022/09/18 03:35:19;;;;;;;;;;;;;;;;;;5074052;28;19923;-81
2022/09/18 03:37:44;;;;;;;;;;;;;;;;;;5089214;28;20257;-81
2022/09/18 03:40:12;;;;;;;;;;;;;;;;;;5072825;28;20308;-82
2022/09/18 03:42:38;;;;;;;;;;;;;;;;;;5073930;28;19917;-81
2022/09/18 03:45:03;;;;;;;;;;;;;;;;;;5090054;28;20342;-79
2022/09/18 03:47:29;;;;;;;;;;;;;;;;;;5073639;28;20015;-81
2022/09/18 03:50:01;;;;;;;;;;;;;;;;;;5090240;28;19924;-81
2022/09/18 03:52:27;;;;;;;;;;;;;;;;;;5057431;28;19970;-81
2022/09/18 03:54:53;;;;;;;;;;;;;;;;;;5070595;28;20308;-82
2022/09/18 03:57:19;;;;;;;;;;;;;;;;;;5054054;28;19921;-81
2022/09/18 03:59:47;;;;;;;;;;;;;;;;;;5039160;28;19923;-81
2022/09/18 04:02:13;;;;;;;;;;;;;;;;;;5057704;28;19928;-81
2022/09/18 04:04:38;;;;;;;;;;;;;;;;;;5057592;28;20000;-80
2022/09/18 04:07:04;;;;;;;;;;;;;;;;;;5039924;28;19927;-80
2022/09/18 04:09:29;;;;;;;;;;;;;;;;;;5057557;28;19919;-80
2022/09/18 04:11:55;;;;;;;;;;;;;;;;;;5058282;28;19917;-79
2022/09/18 04:14:21;;;;;;;;;;;;;;;;;;5057561;28;20334;-80
2022/09/18 04:16:47;;;;;;;;;;;;;;;;;;5023769;28;20314;-80
2022/09/18 04:19:12;;;;;;;;;;;;;;;;;;5057412;28;19974;-81
2022/09/18 04:21:38;;;;;;;;;;;;;;;;;;5057318;28;20030;-82
2022/09/18 04:24:03;;;;;;;;;;;;;;;;;;5039260;28;19917;-81
2022/09/18 04:26:28;;;;;;;;;;;;;;;;;;5022826;28;20007;-81
2022/09/18 04:28:54;;;;;;;;;;;;;;;;;;5039361;28;19917;-82
2022/09/18 04:31:19;;;;;;;;;;;;;;;;;;5039349;28;19928;-81
2022/09/18 04:33:45;;;;;;;;;;;;;;;;;;5039271;28;19994;-80
2022/09/18 04:36:10;;;;;;;;;;;;;;;;;;5057039;28;19917;-81
2022/09/18 04:38:37;;;;;;;;;;;;;;;;;;5039506;28;19923;-81
2022/09/18 04:41:02;;;;;;;;;;;;;;;;;;5056884;28;19917;-79
2022/09/18 04:43:27;;;;;;;;;;;;;;;;;;5056898;28;19923;-80
2022/09/18 04:45:53;;;;;;;;;;;;;;;;;;5056533;28;19966;-81
2022/09/18 04:48:19;;;;;;;;;;;;;;;;;;5057205;28;19912;-81
2022/09/18 04:50:47;;;;;;;;;;;;;;;;;;5056703;28;20274;-81
2022/09/18 04:53:15;;;;;;;;;;;;;;;;;;5039167;28;19923;-82
2022/09/18 04:55:41;;;;;;;;;;;;;;;;;;5049048;28;19939;-82
2022/09/18 04:58:06;;;;;;;;;;;;;;;;;;5077356;28;19916;-83
2022/09/18 05:00:33;;;;;;;;;;;;;;;;;;5075463;28;19913;-82
2022/09/18 05:02:59;;;;;;;;;;;;;;;;;;5076874;28;19928;-81
2022/09/18 05:05:24;;;;;;;;;;;;;;;;;;5092390;28;19917;-81
2022/09/18 05:07:49;;;;;;;;;;;;;;;;;;5092190;28;20006;-81
2022/09/18 05:10:15;;;;;;;;;;;;;;;;;;5075568;28;19975;-81
2022/09/18 05:12:40;;;;;;;;;;;;;;;;;;5076426;28;20003;-82
2022/09/18 05:15:11;;;;;;;;;;;;;;;;;;5076949;28;19923;-82
2022/09/18 05:17:40;;;;;;;;;;;;;;;;;;5075247;28;19923;-82
2022/09/18 05:20:08;;;;;;;;;;;;;;;;;;5076166;28;20357;-80
2022/09/18 05:22:34;;;;;;;;;;;;;;;;;;5076120;28;19916;-81
2022/09/18 05:24:59;;;;;;;;;;;;;;;;;;5076438;28;20326;-82
2022/09/18 05:27:24;;;;;;;;;;;;;;;;;;5076011;28;19973;-79
2022/09/18 05:29:49;;;;;;;;;;;;;;;;;;5076019;28;20366;-81
2022/09/18 05:32:19;;;;;;;;;;;;;;;;;;5075905;28;19916;-80
2022/09/18 05:34:45;;;;;;;;;;;;;;;;;;5091385;28;19956;-80
2022/09/18 05:37:10;;;;;;;;;;;;;;;;;;5075786;28;19951;-80
2022/09/18 05:39:36;;;;;;;;;;;;;;;;;;5076089;28;20284;-81
2022/09/18 05:42:01;;;;;;;;;;;;;;;;;;5075771;28;19917;-80
2022/09/18 05:44:27;;;;;;;;;;;;;;;;;;5075601;28;19923;-81
2022/09/18 05:46:52;;;;;;;;;;;;;;;;;;5075582;28;19916;-80
2022/09/18 05:49:17;;;;;;;;;;;;;;;;;;5075810;28;19916;-81
2022/09/18 05:51:46;;;;;;;;;;;;;;;;;;5075561;28;20006;-81
2022/09/18 05:54:11;;;;;;;;;;;;;;;;;;5075505;28;19970;-81
2022/09/18 05:56:36;;;;;;;;;;;;;;;;;;5075104;28;19967;-80
2022/09/18 05:59:02;;;;;;;;;;;;;;;;;;5075414;28;19916;-80
2022/09/18 06:01:28;;;;;;;;;;;;;;;;;;5075726;28;19917;-81
2022/09/18 06:03:53;;;;;;;;;;;;;;;;;;5073891;28;19921;-81
2022/09/18 06:06:19;;;;;;;;;;;;;;;;;;5075324;28;19939;-80
2022/09/18 06:08:44;;;;;;;;;;;;;;;;;;5075419;28;19916;-80
2022/09/18 06:11:09;;;;;;;;;;;;;;;;;;5057724;28;19967;-81
2022/09/18 06:13:35;;;;;;;;;;;;;;;;;;5075543;28;20308;-80
2022/09/18 06:16:00;;;;;;;;;;;;;;;;;;5073909;28;19917;-82
2022/09/18 06:18:25;;;;;;;;;;;;;;;;;;5075112;28;19917;-81
2022/09/18 06:20:55;;;;;;;;;;;;;;;;;;5075179;28;19966;-80
2022/09/18 06:23:21;;;;;;;;;;;;;;;;;;5073663;28;20251;-81
2022/09/18 06:25:47;;;;;;;;;;;;;;;;;;5073587;28;19916;-81
2022/09/18 06:28:12;;;;;;;;;;;;;;;;;;5074903;28;19924;-82
2022/09/18 06:30:37;;;;;;;;;;;;;;;;;;5074891;28;20002;-81
2022/09/18 06:33:06;;;;;;;;;;;;;;;;;;5075301;28;19957;-81
2022/09/18 06:35:31;;;;;;;;;;;;;;;;;;5073795;28;19924;-80
2022/09/18 06:38:01;;;;;;;;;;;;;;;;;;5074734;28;19916;-80
2022/09/18 06:40:27;;;;;;;;;;;;;;;;;;5073253;28;19921;-81
2022/09/18 06:42:56;;;;;;;;;;;;;;;;;;5074837;28;20001;-81
2022/09/18 06:45:22;;;;;;;;;;;;;;;;;;5073516;28;19924;-81
2022/09/18 06:47:47;;;;;;;;;;;;;;;;;;5074556;28;19916;-80
2022/09/18 06:50:12;;;;;;;;;;;;;;;;;;5074533;28;19917;-82
2022/09/18 06:52:37;;;;;;;;;;;;;;;;;;5074627;28;20301;-81
2022/09/18 06:55:03;;;;;;;;;;;;;;;;;;5074215;28;19917;-81
2022/09/18 06:57:28;;;;;;;;;;;;;;;;;;5074809;28;20302;-81
2022/09/18 06:59:54;;;;;;;;;;;;;;;;;;5074347;28;19917;-80
2022/09/18 07:02:19;;;;;;;;;;;;;;;;;;5074295;28;19916;-82
2022/09/18 07:04:45;;;;;;;;;;;;;;;;;;5074264;28;19917;-80
2022/09/18 07:07:10;;;;;;;;;;;;;;;;;;5074300;28;19920;-81
2022/09/18 07:09:36;;;;;;;;;;;;;;;;;;5073078;28;19923;-81
2022/09/18 07:12:01;;;;;;;;;;;;;;;;;;5074247;28;19921;-81
2022/09/18 07:14:27;;;;;;;;;;;;;;;;;;5073067;28;19923;-81
2022/09/18 07:16:52;;;;;;;;;;;;;;;;;;5074192;28;19966;-81
2022/09/18 07:19:17;;;;;;;;;;;;;;;;;;5074614;28;19999;-81
2022/09/18 07:21:44;;;;;;;;;;;;;;;;;;5074412;28;20012;-81
2022/09/18 07:24:09;;;;;;;;;;;;;;;;;;5074192;28;19927;-81
2022/09/18 07:26:34;;;;;;;;;;;;;;;;;;5074471;28;20011;-82
2022/09/18 07:29:00;;;;;;;;;;;;;;;;;;5090022;28;19924;-82
2022/09/18 07:31:26;;;;;;;;;;;;;;;;;;5074100;28;19962;-81
2022/09/18 07:33:52;;;;;;;;;;;;;;;;;;5075737;28;19965;-81
2022/09/18 07:36:17;;;;;;;;;;;;;;;;;;5060460;28;19966;-82
2022/09/18 07:38:42;;;;;;;;;;;;;;;;;;5077891;28;20561;-81
2022/09/18 07:41:08;;;;;;;;;;;;;;;;;;5078102;28;19920;-81
2022/09/18 07:43:33;;;;;;;;;;;;;;;;;;5077992;28;19916;-82
2022/09/18 07:45:59;;;;;;;;;;;;;;;;;;5077946;28;19917;-81
2022/09/18 07:48:24;;;;;;;;;;;;;;;;;;5078018;28;19917;-80
2022/09/18 07:50:50;;;;;;;;;;;;;;;;;;5077825;28;20321;-81
2022/09/18 07:53:16;;;;;;;;;;;;;;;;;;5077658;28;19956;-80
2022/09/18 07:55:46;;;;;;;;;;;;;;;;;;5076553;28;19926;-81
2022/09/18 07:58:11;;;;;;;;;;;;;;;;;;5076903;28;20261;-81
2022/09/18 08:00:36;;;;;;;;;;;;;;;;;;5077780;28;19912;-81
2022/09/18 08:03:02;;;;;;;;;;;;;;;;;;5077635;28;19916;-80
2022/09/18 08:05:27;;;;;;;;;;;;;;;;;;5077594;28;19916;-80
2022/09/18 08:07:52;;;;;;;;;;;;;;;;;;5076153;28;19974;-82
2022/09/18 08:10:18;;;;;;;;;;;;;;;;;;5077497;28;19916;-80
2022/09/18 08:12:43;;;;;;;;;;;;;;;;;;5077510;28;19916;-81
2022/09/18 08:15:08;;;;;;;;;;;;;;;;;;5077541;28;20290;-80
2022/09/18 08:17:34;;;;;;;;;;;;;;;;;;5076123;28;19923;-80
2022/09/18 08:20:00;;;;;;;;;;;;;;;;;;5077327;28;19917;-80
2022/09/18 08:22:25;;;;;;;;;;;;;;;;;;5077423;28;20444;-81
2022/09/18 08:24:51;;;;;;;;;;;;;;;;;;5077199;28;20304;-80
2022/09/18 08:27:16;;;;;;;;;;;;;;;;;;5077135;28;19916;-81
2022/09/18 08:29:42;;;;;;;;;;;;;;;;;;5077178;28;20208;-80
2022/09/18 08:32:07;;;;;;;;;;;;;;;;;;5077284;28;19916;-80
2022/09/18 08:34:33;;;;;;;;;;;;;;;;;;5077131;28;19916;-80
2022/09/18 08:36:58;;;;;;;;;;;;;;;;;;5076767;28;20293;-81
2022/09/18 08:39:23;;;;;;;;;;;;;;;;;;5076998;28;20330;-81
2022/09/18 08:41:56;;;;;;;;;;;;;;;;;;5077390;28;20339;-81
2022/09/18 08:44:28;;;;;;;;;;;;;;;;;;5074935;28;19920;-80
2022/09/18 08:47:01;;;;;;;;;;;;;;;;;;5075166;28;19916;-79
2022/09/18 08:49:46;;;;;;;;;;;;;;;;;;5076816;28;20010;-80
2022/09/18 08:52:13;;;;;;;;;;;;;;;;;;5075240;28;20011;-80
2022/09/18 08:54:39;;;;;;;;;;;;;;;;;;5075541;28;20308;-80
2022/09/18 08:57:09;;;;;;;;;;;;;;;;;;5076537;28;20011;-80
2022/09/18 08:59:36;;;;;;;;;;;;;;;;;;5075418;28;19947;-80
2022/09/18 09:02:11;;;;;;;;;;;;;;;;;;5075302;28;20035;-80
2022/09/18 09:04:36;;;;;;;;;;;;;;;;;;5076431;28;19924;-80
2022/09/18 09:07:27;;;;;;;;;;;;;;;;;;5076454;28;19943;-80
2022/09/18 09:10:02;;;;;;;;;;;;;;;;;;5076690;28;19973;-82
2022/09/18 09:12:33;;;;;;;;;;;;;;;;;;5076357;28;19962;-80
2022/09/18 09:15:17;;;;;;;;;;;;;;;;;;5075091;28;20409;-81
2022/09/18 09:17:49;;;;;;;;;;;;;;;;;;5076301;28;19995;-81
2022/09/18 09:20:19;;;;;;;;;;;;;;;;;;5075963;28;19939;-79
2022/09/18 09:22:45;;;;;;;;;;;;;;;;;;5074981;28;19916;-80
2022/09/18 09:25:15;;;;;;;;;;;;;;;;;;5076042;28;20335;-81
2022/09/18 09:27:41;;;;;;;;;;;;;;;;;;5074925;28;20330;-80
2022/09/18 09:30:13;;;;;;;;;;;;;;;;;;5076214;28;19923;-80
2022/09/18 09:32:51;;;;;;;;;;;;;;;;;;5075220;28;19917;-78
2022/09/18 09:35:22;;;;;;;;;;;;;;;;;;5074449;28;19920;-80
2022/09/18 09:37:47;;;;;;;;;;;;;;;;;;5058288;28;19923;-80
2022/09/18 09:40:24;;;;;;;;;;;;;;;;;;5075894;28;19920;-79
2022/09/18 09:42:59;;;;;;;;;;;;;;;;;;5074817;28;19927;-78
2022/09/18 09:45:29;;;;;;;;;;;;;;;;;;5074920;28;20038;-79
2022/09/18 09:47:54;;;;;;;;;;;;;;;;;;5074643;28;20349;-79
2022/09/18 09:50:31;;;;;;;;;;;;;;;;;;5075551;28;19916;-80
2022/09/18 09:52:58;;;;;;;;;;;;;;;;;;5075618;28;19923;-79
2022/09/18 09:55:24;;;;;;;;;;;;;;;;;;5075515;28;19924;-79
2022/09/18 09:58:03;;;;;;;;;;;;;;;;;;5073990;28;19916;-81
2022/09/18 10:00:58;;;;;;;;;;;;;;;;;;5074568;28;20314;-78
2022/09/18 10:03:42;;;;;;;;;;;;;;;;;;5066308;28;19967;-81
2022/09/18 10:06:07;;;;;;;;;;;;;;;;;;5075327;28;20304;-79
2022/09/18 10:08:39;;;;;;;;;;;;;;;;;;5074107;28;19931;-81
2022/09/18 10:11:07;;;;;;;;;;;;;;;;;;5075300;28;19916;-80
2022/09/18 10:13:40;;;;;;;;;;;;;;;;;;5075170;28;19917;-81
2022/09/18 10:16:14;;;;;;;;;;;;;;;;;;5073939;28;19916;-81
2022/09/18 10:18:43;;;;;;;;;;;;;;;;;;5073817;28;19921;-80
2022/09/18 10:21:13;;;;;;;;;;;;;;;;;;5073870;28;19927;-81
2022/09/18 10:23:39;;;;;;;;;;;;;;;;;;5073995;28;19916;-81
2022/09/18 10:26:04;;;;;;;;;;;;;;;;;;5073788;28;19916;-79
2022/09/18 10:28:30;;;;;;;;;;;;;;;;;;5073718;28;19912;-80
2022/09/18 10:30:58;;;;;;;;;;;;;;;;;;5074936;28;20308;-80
2022/09/18 10:33:30;;;;;;;;;;;;;;;;;;5074607;28;19961;-80
2022/09/18 10:35:56;;;;;;;;;;;;;;;;;;5075024;28;19982;-80
2022/09/18 10:38:31;;;;;;;;;;;;;;;;;;5073566;28;19916;-80
2022/09/18 10:41:09;;;;;;;;;;;;;;;;;;5074740;28;19919;-81
2022/09/18 10:43:34;;;;;;;;;;;;;;;;;;5074977;28;19923;-79
2022/09/18 10:45:59;;;;;;;;;;;;;;;;;;5073417;28;19921;-81
2022/09/18 10:48:25;;;;;;;;;;;;;;;;;;5074367;28;19947;-81
2022/09/18 10:51:00;;;;;;;;;;;;;;;;;;5074656;28;19923;-80
2022/09/18 10:53:29;;;;;;;;;;;;;;;;;;5073417;28;19995;-80
2022/09/18 10:56:01;;;;;;;;;;;;;;;;;;5073195;28;20007;-81
2022/09/18 10:58:27;;;;;;;;;;;;;;;;;;5074694;28;19920;-80
2022/09/18 11:01:02;;;;;;;;;;;;;;;;;;5072936;28;19924;-80
2022/09/18 11:03:28;;;;;;;;;;;;;;;;;;5073326;28;19917;-81
2022/09/18 11:05:57;;;;;;;;;;;;;;;;;;5074405;28;19973;-79
2022/09/18 11:08:23;;;;;;;;;;;;;;;;;;5072428;28;20006;-80
2022/09/18 11:10:49;;;;;;;;;;;;;;;;;;5072737;28;20051;-80
2022/09/18 11:13:18;;;;;;;;;;;;;;;;;;5072707;28;19912;-78
2022/09/18 11:15:48;;;;;;;;;;;;;;;;;;5074262;28;19916;-81
2022/09/18 11:18:14;;;;;;;;;;;;;;;;;;5073048;28;19932;-80
2022/09/18 11:20:40;;;;;;;;;;;;;;;;;;5074183;28;19999;-80
2022/09/18 11:23:13;;;;;;;;;;;;;;;;;;5072878;28;20239;-81
2022/09/18 11:25:38;;;;;;;;;;;;;;;;;;5072998;28;19916;-80
2022/09/18 11:28:07;;;;;;;;;;;;;;;;;;5056347;28;20254;-80
2022/09/18 11:30:33;;;;;;;;;;;;;;;;;;5072651;28;19918;-80
2022/09/18 11:33:05;;;;;;;;;;;;;;;;;;5074207;28;19916;-81
2022/09/18 11:35:30;;;;;;;;;;;;;;;;;;5074115;28;19917;-79
2022/09/18 11:38:06;;;;;;;;;;;;;;;;;;5072978;28;19917;-80
2022/09/18 11:40:32;;;;;;;;;;;;;;;;;;5073228;28;19917;-80
2022/09/18 11:42:58;;;;;;;;;;;;;;;;;;5074151;28;20368;-80
2022/09/18 11:45:24;;;;;;;;;;;;;;;;;;5073803;28;20257;-80
2022/09/18 11:48:12;;;;;;;;;;;;;;;;;;5074232;28;19917;-81
2022/09/18 11:50:37;;;;;;;;;;;;;;;;;;5054521;28;19921;-80
2022/09/18 11:53:05;;;;;;;;;;;;;;;;;;5073936;28;19923;-81
2022/09/18 11:55:42;;;;;;;;;;;;;;;;;;5074197;28;20335;-80
2022/09/18 11:58:13;;;;;;;;;;;;;;;;;;5056545;28;19924;-80
2022/09/18 12:00:59;;;;;;;;;;;;;;;;;;5073920;28;19958;-80
2022/09/18 12:03:26;;;;;;;;;;;;;;;;;;5073563;28;19966;-81
2022/09/18 12:05:56;;;;;;;;;;;;;;;;;;5073868;28;20296;-81
2022/09/18 12:08:27;;;;;;;;;;;;;;;;;;5072666;28;20312;-80
2022/09/18 12:11:01;;;;;;;;;;;;;;;;;;5072677;28;19917;-81
2022/09/18 12:13:46;;;;;;;;;;;;;;;;;;5073580;28;19920;-81
2022/09/18 12:16:43;;;;;;;;;;;;;;;;;;5073849;28;19923;-80
2022/09/18 12:19:08;;;;;;;;;;;;;;;;;;5051228;28;19956;-81
2022/09/18 12:21:42;;;;;;;;;;;;;;;;;;5077360;28;19948;-80
2022/09/18 12:24:10;;;;;;;;;;;;;;;;;;5076066;28;20350;-81
2022/09/18 12:26:45;;;;;;;;;;;;;;;;;;5075995;28;19923;-80
2022/09/18 12:29:22;;;;;;;;;;;;;;;;;;5077011;28;19967;-80
2022/09/18 12:31:57;;;;;;;;;;;;;;;;;;5077250;28;20011;-80
2022/09/18 12:34:26;;;;;;;;;;;;;;;;;;5075923;28;20330;-80
2022/09/18 12:36:57;;;;;;;;;;;;;;;;;;5077633;28;20322;-80
2022/09/18 12:39:38;;;;;;;;;;;;;;;;;;5077122;28;19935;-80
2022/09/18 12:42:27;;;;;;;;;;;;;;;;;;5076983;28;19970;-80
2022/09/18 12:44:58;;;;;;;;;;;;;;;;;;5071301;28;20015;-80
2022/09/18 12:47:24;;;;;;;;;;;;;;;;;;5075839;28;19973;-81
2022/09/18 12:50:05;;;;;;;;;;;;;;;;;;5077031;28;19916;-82
2022/09/18 12:52:49;;;;;;;;;;;;;;;;;;5076880;28;19952;-80
2022/09/18 12:55:46;;;;;;;;;;;;;;;;;;5076829;28;20267;-80
2022/09/18 12:58:30;;;;;;;;;;;;;;;;;;5053609;28;19916;-79
2022/09/18 13:00:55;;;;;;;;;;;;;;;;;;5075485;28;19916;-81
2022/09/18 13:03:20;;;;;;;;;;;;;;;;;;5076616;28;19916;-80
2022/09/18 13:05:54;;;;;;;;;;;;;;;;;;5076622;28;19923;-79
2022/09/18 13:08:39;;;;;;;;;;;;;;;;;;5075318;28;20007;-81
2022/09/18 13:11:07;;;;;;;;;;;;;;;;;;5075262;28;19916;-79
2022/09/18 13:13:36;;;;;;;;;;;;;;;;;;5075115;28;19920;-80
2022/09/18 13:16:01;;;;;;;;;;;;;;;;;;5076394;28;20312;-80
2022/09/18 13:18:56;;;;;;;;;;;;;;;;;;5075440;28;19917;-80
2022/09/18 13:21:26;;;;;;;;;;;;;;;;;;5067512;28;19917;-80
2022/09/18 13:23:51;;;;;;;;;;;;;;;;;;5076142;28;19916;-81
2022/09/18 13:26:17;;;;;;;;;;;;;;;;;;5074719;28;19923;-81
2022/09/18 13:28:42;;;;;;;;;;;;;;;;;;5076923;28;20226;-80
2022/09/18 13:31:14;;;;;;;;;;;;;;;;;;5074280;28;20246;-81
2022/09/18 13:33:50;;;;;;;;;;;;;;;;;;5076213;28;20309;-79
2022/09/18 13:36:29;;;;;;;;;;;;;;;;;;5076071;28;19922;-80
2022/09/18 13:38:56;;;;;;;;;;;;;;;;;;5076005;28;20357;-80
2022/09/18 13:41:21;;;;;;;;;;;;;;;;;;5075936;28;19916;-79
2022/09/18 13:43:50;;;;;;;;;;;;;;;;;;5075857;28;20333;-81
2022/09/18 13:46:36;;;;;;;;;;;;;;;;;;5074695;28;19952;-80
2022/09/18 13:49:02;;;;;;;;;;;;;;;;;;5076253;28;19912;-80
2022/09/18 13:51:31;;;;;;;;;;;;;;;;;;5074557;28;19956;-80
2022/09/18 13:54:16;;;;;;;;;;;;;;;;;;5074531;28;19916;-80
2022/09/18 13:57:00;;;;;;;;;;;;;;;;;;5075583;28;20330;-80
2022/09/18 13:59:42;;;;;;;;;;;;;;;;;;5075852;28;19916;-79
2022/09/18 14:02:20;;;;;;;;;;;;;;;;;;5074205;28;20265;-80
2022/09/18 14:04:48;;;;;;;;;;;;;;;;;;5075703;28;19920;-80
2022/09/18 14:07:17;;;;;;;;;;;;;;;;;;5075884;28;19923;-80
2022/09/18 14:09:52;;;;;;;;;;;;;;;;;;5075156;28;19959;-80
2022/09/18 14:12:17;;;;;;;;;;;;;;;;;;5075328;28;19923;-79
2022/09/18 14:14:43;;;;;;;;;;;;;;;;;;5074004;28;19916;-79
2022/09/18 14:17:12;;;;;;;;;;;;;;;;;;5074411;28;19927;-81
2022/09/18 14:19:39;;;;;;;;;;;;;;;;;;5075060;28;19934;-81
2022/09/18 14:22:04;;;;;;;;;;;;;;;;;;5075119;28;19917;-81
2022/09/18 14:24:50;;;;;;;;;;;;;;;;;;5074143;28;19924;-81
2022/09/18 14:27:24;;;;;;;;;;;;;;;;;;5067938;28;19916;-80
2022/09/18 14:29:53;;;;;;;;;;;;;;;;;;5083065;28;19924;-80
2022/09/18 14:32:18;;;;;;;;;;;;;;;;;;5089819;28;19908;-80
2022/09/18 14:34:43;;;;;;;;;;;;;;;;;;5087572;28;19913;-80
2022/09/18 14:37:18;;;;;;;;;;;;;;;;;;5094849;28;19931;-80
2022/09/18 14:39:43;;;;;;;;;;;;;;;;;;5089339;28;20356;-80
2022/09/18 14:42:27;;;;;;;;;;;;;;;;;;5076192;28;19916;-81
2022/09/18 14:44:54;;;;;;;;;;;;;;;;;;5076222;28;19917;-79
2022/09/18 14:47:21;;;;;;;;;;;;;;;;;;5079084;28;19928;-81
2022/09/18 14:49:48;;;;;;;;;;;;;;;;;;5083839;28;19912;-80
2022/09/18 14:52:19;;;;;;;;;;;;;;;;;;5084549;28;19920;-80
2022/09/18 14:54:45;;;;;;;;;;;;;;;;;;5078637;28;19916;-80
2022/09/18 14:57:10;;;;;;;;;;;;;;;;;;5073388;28;19920;-81
2022/09/18 14:59:36;;;;;;;;;;;;;;;;;;5073308;28;20402;-80
2022/09/18 15:02:16;;;;;;;;;;;;;;;;;;5073301;28;20011;-80
2022/09/18 15:04:41;;;;;;;;;;;;;;;;;;5073459;28;20300;-81
2022/09/18 15:07:12;;;;;;;;;;;;;;;;;;5074385;28;19966;-81
2022/09/18 15:09:37;;;;;;;;;;;;;;;;;;5073048;28;20282;-80
2022/09/18 15:12:03;;;;;;;;;;;;;;;;;;5074053;28;19924;-80
2022/09/18 15:14:30;;;;;;;;;;;;;;;;;;5073313;28;19917;-81
2022/09/18 15:16:56;;;;;;;;;;;;;;;;;;5073523;28;20382;-81
2022/09/18 15:19:21;;;;;;;;;;;;;;;;;;5073207;28;20002;-80
2022/09/18 15:21:47;;;;;;;;;;;;;;;;;;5074209;28;19989;-80
2022/09/18 15:24:13;;;;;;;;;;;;;;;;;;5074318;28;19956;-81
2022/09/18 15:26:39;;;;;;;;;;;;;;;;;;5073162;28;20322;-81
2022/09/18 15:29:05;;;;;;;;;;;;;;;;;;5073015;28;19979;-80
2022/09/18 15:31:32;;;;;;;;;;;;;;;;;;5073315;28;19966;-80
2022/09/18 15:34:04;;;;;;;;;;;;;;;;;;5074436;28;19917;-80
2022/09/18 15:36:30;;;;;;;;;;;;;;;;;;5072709;28;19998;-80
2022/09/18 15:38:56;;;;;;;;;;;;;;;;;;5073002;28;20318;-81
2022/09/18 15:41:27;;;;;;;;;;;;;;;;;;5073248;28;19952;-80
2022/09/18 15:43:53;;;;;;;;;;;;;;;;;;5074348;28;20337;-80
2022/09/18 15:46:24;;;;;;;;;;;;;;;;;;5074628;28;19916;-81
2022/09/18 15:48:50;;;;;;;;;;;;;;;;;;5074002;28;19916;-80
2022/09/18 15:51:26;;;;;;;;;;;;;;;;;;5072611;28;20311;-81
2022/09/18 15:54:04;;;;;;;;;;;;;;;;;;5073112;28;19916;-81
2022/09/18 15:56:30;;;;;;;;;;;;;;;;;;5077914;28;19927;-81
2022/09/18 15:58:57;;;;;;;;;;;;;;;;;;5076708;28;19920;-81
2022/09/18 16:01:34;;;;;;;;;;;;;;;;;;5076650;28;20349;-80
2022/09/18 16:04:11;;;;;;;;;;;;;;;;;;5076652;28;19938;-81
2022/09/18 16:06:42;;;;;;;;;;;;;;;;;;5077762;28;19917;-81
2022/09/18 16:09:11;;;;;;;;;;;;;;;;;;5076555;28;19966;-81
2022/09/18 16:11:38;;;;;;;;;;;;;;;;;;5076306;28;19924;-80
2022/09/18 16:14:12;;;;;;;;;;;;;;;;;;5076346;28;19916;-81
2022/09/18 16:16:38;;;;;;;;;;;;;;;;;;5076293;28;19917;-81
2022/09/18 16:19:07;;;;;;;;;;;;;;;;;;5077602;28;20238;-81
2022/09/18 16:21:37;;;;;;;;;;;;;;;;;;5075995;28;19916;-80
2022/09/18 16:24:02;;;;;;;;;;;;;;;;;;5076083;28;19917;-79
2022/09/18 16:26:29;;;;;;;;;;;;;;;;;;5093274;28;19974;-80
2022/09/18 16:28:59;;;;;;;;;;;;;;;;;;5076445;28;19919;-81
2022/09/18 16:31:26;;;;;;;;;;;;;;;;;;5059757;28;19923;-81
2022/09/18 16:33:56;;;;;;;;;;;;;;;;;;5092802;28;19962;-80
2022/09/18 16:36:26;;;;;;;;;;;;;;;;;;5076910;28;19916;-82
2022/09/18 16:38:52;;;;;;;;;;;;;;;;;;5059581;28;20235;-80
2022/09/18 16:41:17;;;;;;;;;;;;;;;;;;5076914;28;19924;-81
2022/09/18 16:43:43;;;;;;;;;;;;;;;;;;5077002;28;19964;-80
2022/09/18 16:46:08;;;;;;;;;;;;;;;;;;5075638;28;19977;-81
2022/09/18 16:48:33;;;;;;;;;;;;;;;;;;5077245;28;20033;-81
2022/09/18 16:50:59;;;;;;;;;;;;;;;;;;5075429;28;19916;-80
2022/09/18 16:53:24;;;;;;;;;;;;;;;;;;5076936;28;19923;-80
2022/09/18 16:55:51;;;;;;;;;;;;;;;;;;5076627;28;19921;-81
2022/09/18 16:58:16;;;;;;;;;;;;;;;;;;5076750;28;19924;-80